Time;durP1;ratioP1;P1;durP2;ratioP2;P2;SDS_P1;SDS_P2;PMS_P1;PMS_P2;Temp;Humidity;BMP_temperature;BMP_pressure;BME280_temperature;BME280_humidity;BME280_pressure;Samples;Min_cycle;Max_cycle;Signal;HPM_P1;HPM_P2
2022/07/31 00:01:48;;;;;;;2.20;2.00;;;;;;;;;;5052025;28;20098;-76
2022/07/31 00:04:14;;;;;;;3.75;1.90;;;;;;;;;;5053220;28;20090;-77
2022/07/31 00:06:42;;;;;;;2.10;1.98;;;;;;;;;;5053441;28;20095;-77
2022/07/31 00:09:09;;;;;;;2.25;2.05;;;;;;;;;;5052006;28;20111;-77
2022/07/31 00:11:56;;;;;;;2.20;2.00;;;;;;;;;;5053357;28;20051;-77
2022/07/31 00:14:22;;;;;;;2.42;2.15;;;;;;;;;;5053198;28;20081;-77
2022/07/31 00:16:49;;;;;;;2.08;1.90;;;;;;;;;;5053299;28;20103;-75
2022/07/31 00:19:16;;;;;;;2.00;1.90;;;;;;;;;;5053006;28;20091;-77
2022/07/31 00:21:42;;;;;;;2.15;1.95;;;;;;;;;;5053284;28;20040;-76
2022/07/31 00:24:09;;;;;;;2.38;2.10;;;;;;;;;;5053196;28;20056;-77
2022/07/31 00:26:35;;;;;;;2.25;2.05;;;;;;;;;;5053391;28;20072;-77
2022/07/31 00:29:02;;;;;;;3.10;2.30;;;;;;;;;;5052739;28;20497;-76
2022/07/31 00:31:28;;;;;;;2.03;1.92;;;;;;;;;;5052737;28;20075;-76
2022/07/31 00:33:55;;;;;;;2.55;1.88;;;;;;;;;;5052610;28;20057;-77
2022/07/31 00:36:21;;;;;;;1.90;1.80;;;;;;;;;;5052744;28;20159;-77
2022/07/31 00:38:55;;;;;;;3.20;1.88;;;;;;;;;;5052541;28;20040;-77
2022/07/31 00:41:22;;;;;;;1.92;1.70;;;;;;;;;;5052550;28;20051;-76
2022/07/31 00:43:48;;;;;;;2.03;1.90;;;;;;;;;;5052533;28;20084;-74
2022/07/31 00:46:14;;;;;;;1.67;1.58;;;;;;;;;;5052532;28;20497;-77
2022/07/31 00:48:43;;;;;;;2.22;2.00;;;;;;;;;;5052219;28;20049;-77
2022/07/31 00:51:09;;;;;;;1.97;1.83;;;;;;;;;;5052350;28;20509;-77
2022/07/31 00:53:36;;;;;;;2.72;1.80;;;;;;;;;;5051218;28;21316;-77
2022/07/31 00:56:02;;;;;;;2.10;1.80;;;;;;;;;;5052662;28;20464;-77
2022/07/31 00:58:28;;;;;;;1.92;1.83;;;;;;;;;;5052534;28;20073;-77
2022/07/31 01:00:55;;;;;;;2.53;1.92;;;;;;;;;;5052149;28;20076;-77
2022/07/31 01:03:21;;;;;;;1.63;1.52;;;;;;;;;;5052188;28;20048;-77
2022/07/31 01:05:48;;;;;;;1.63;1.52;;;;;;;;;;5052253;28;20084;-75
2022/07/31 01:08:14;;;;;;;1.55;1.50;;;;;;;;;;5052420;28;20084;-77
2022/07/31 01:10:48;;;;;;;2.70;1.80;;;;;;;;;;5052368;28;20080;-77
2022/07/31 01:13:21;;;;;;;1.92;1.80;;;;;;;;;;5051945;28;20508;-77
2022/07/31 01:15:48;;;;;;;2.63;1.75;;;;;;;;;;5052260;28;20087;-77
2022/07/31 01:18:15;;;;;;;1.70;1.60;;;;;;;;;;5052206;28;20144;-77
2022/07/31 01:20:43;;;;;;;1.85;1.75;;;;;;;;;;5052151;28;20546;-78
2022/07/31 01:23:09;;;;;;;2.33;1.73;;;;;;;;;;5052049;28;20080;-78
2022/07/31 01:25:39;;;;;;;1.90;1.80;;;;;;;;;;5051768;28;20500;-78
2022/07/31 01:28:06;;;;;;;1.60;1.50;;;;;;;;;;5051795;28;20484;-78
2022/07/31 01:30:35;;;;;;;2.17;2.07;;;;;;;;;;5051772;28;20084;-78
2022/07/31 01:33:05;;;;;;;1.67;1.58;;;;;;;;;;5051596;28;20508;-78
2022/07/31 01:35:33;;;;;;;1.85;1.75;;;;;;;;;;5046559;28;20124;-78
2022/07/31 01:38:03;;;;;;;1.83;1.73;;;;;;;;;;5051212;28;20083;-77
2022/07/31 01:40:34;;;;;;;1.65;1.55;;;;;;;;;;5051366;28;20080;-78
2022/07/31 01:43:03;;;;;;;2.65;1.90;;;;;;;;;;5050699;28;20118;-78
2022/07/31 01:45:32;;;;;;;1.70;1.60;;;;;;;;;;5051744;28;20053;-77
2022/07/31 01:47:59;;;;;;;1.73;1.63;;;;;;;;;;5051245;28;20099;-78
2022/07/31 01:50:26;;;;;;;1.65;1.55;;;;;;;;;;5051808;28;20092;-78
2022/07/31 01:53:11;;;;;;;1.77;1.67;;;;;;;;;;5051317;28;20045;-78
2022/07/31 01:55:40;;;;;;;1.95;1.85;;;;;;;;;;5051505;28;20201;-77
2022/07/31 01:58:27;;;;;;;1.63;1.42;;;;;;;;;;5051563;28;20069;-77
2022/07/31 02:00:57;;;;;;;1.90;1.80;;;;;;;;;;5051607;28;20102;-78
2022/07/31 02:03:25;;;;;;;2.47;2.00;;;;;;;;;;5051678;28;20144;-77
2022/07/31 02:06:14;;;;;;;2.40;2.20;;;;;;;;;;5051685;28;20049;-77
2022/07/31 02:08:42;;;;;;;2.85;1.80;;;;;;;;;;5051603;28;20052;-77
2022/07/31 02:11:09;;;;;;;3.17;2.00;;;;;;;;;;5051243;28;20076;-78
2022/07/31 02:13:36;;;;;;;3.47;2.25;;;;;;;;;;5051444;28;20136;-77
2022/07/31 02:16:03;;;;;;;1.90;1.80;;;;;;;;;;5051343;28;20049;-78
2022/07/31 02:18:31;;;;;;;2.17;2.08;;;;;;;;;;5051169;28;20127;-77
2022/07/31 02:20:57;;;;;;;2.65;2.45;;;;;;;;;;5051507;28;20073;-77
2022/07/31 02:23:24;;;;;;;2.25;2.08;;;;;;;;;;5051484;28;20045;-77
2022/07/31 02:25:51;;;;;;;2.33;2.05;;;;;;;;;;5051486;28;20044;-77
2022/07/31 02:28:21;;;;;;;2.85;2.65;;;;;;;;;;5051491;28;20076;-77
2022/07/31 02:30:48;;;;;;;3.00;2.33;;;;;;;;;;5051611;28;20068;-77
2022/07/31 02:33:20;;;;;;;4.60;3.05;;;;;;;;;;5051123;28;20508;-75
2022/07/31 02:35:48;;;;;;;4.53;3.40;;;;;;;;;;5051328;28;20076;-77
2022/07/31 02:38:17;;;;;;;3.42;2.90;;;;;;;;;;5051271;28;20414;-77
2022/07/31 02:40:57;;;;;;;4.05;3.63;;;;;;;;;;5051051;28;20561;-74
2022/07/31 02:43:25;;;;;;;4.13;2.92;;;;;;;;;;5049887;28;20103;-76
2022/07/31 02:45:53;;;;;;;5.07;3.28;;;;;;;;;;5050809;28;20068;-75
2022/07/31 02:48:19;;;;;;;;;;;;;;;;;;5051354;28;20139;-76
2022/07/31 02:50:46;;;;;;;3.63;2.87;;;;;;;;;;5050916;28;20277;-76
2022/07/31 02:53:12;;;;;;;6.73;3.50;;;;;;;;;;5054855;28;20162;-76
2022/07/31 02:55:39;;;;;;;4.55;3.13;;;;;;;;;;5054457;28;20336;-77
2022/07/31 02:58:05;;;;;;;3.25;3.00;;;;;;;;;;5054794;28;20045;-74
2022/07/31 03:00:32;;;;;;;3.43;2.93;;;;;;;;;;5054769;28;20095;-76
2022/07/31 03:02:58;;;;;;;3.60;2.70;;;;;;;;;;5054738;28;20191;-77
2022/07/31 03:05:25;;;;;;;3.88;2.97;;;;;;;;;;5054437;28;20140;-74
2022/07/31 03:07:51;;;;;;;4.97;3.53;;;;;;;;;;5054427;28;20084;-75
2022/07/31 03:10:18;;;;;;;5.07;3.33;;;;;;;;;;5054622;28;20455;-74
2022/07/31 03:12:46;;;;;;;4.28;3.42;;;;;;;;;;5054541;28;20057;-76
2022/07/31 03:15:14;;;;;;;4.40;3.38;;;;;;;;;;5054145;28;20084;-75
2022/07/31 03:17:40;;;;;;;;;;;;;;;;;;5054896;28;20099;-71
2022/07/31 03:20:07;;;;;;;7.43;3.22;;;;;;;;;;5054438;28;19971;-74
2022/07/31 03:22:34;;;;;;;4.65;3.25;;;;;;;;;;5054244;28;20101;-74
2022/07/31 03:25:01;;;;;;;3.80;3.50;;;;;;;;;;5054317;28;20049;-74
2022/07/31 03:27:28;;;;;;;6.00;3.58;;;;;;;;;;5052782;28;20058;-75
2022/07/31 03:29:54;;;;;;;4.53;3.00;;;;;;;;;;5054250;28;20468;-75
2022/07/31 03:32:21;;;;;;;5.23;3.50;;;;;;;;;;5054284;28;20131;-76
2022/07/31 03:34:47;;;;;;;4.53;3.55;;;;;;;;;;5054099;28;20518;-74
2022/07/31 03:37:13;;;;;;;4.10;3.38;;;;;;;;;;5054079;28;20163;-74
2022/07/31 03:39:40;;;;;;;5.68;3.70;;;;;;;;;;5053791;28;20497;-75
2022/07/31 03:42:08;;;;;;;4.55;3.35;;;;;;;;;;5054023;28;20040;-73
2022/07/31 03:44:45;;;;;;;4.90;3.80;;;;;;;;;;5053980;28;20057;-75
2022/07/31 03:47:11;;;;;;;5.60;3.75;;;;;;;;;;5053638;28;20084;-76
2022/07/31 03:49:41;;;;;;;5.78;3.75;;;;;;;;;;5053829;28;20449;-75
2022/07/31 03:52:08;;;;;;;6.15;3.88;;;;;;;;;;5053859;28;20156;-74
2022/07/31 03:54:38;;;;;;;3.67;3.38;;;;;;;;;;5053365;28;20396;-75
2022/07/31 03:57:05;;;;;;;7.53;3.53;;;;;;;;;;5053511;28;20105;-75
2022/07/31 03:59:32;;;;;;;4.72;3.55;;;;;;;;;;5053617;28;20148;-73
2022/07/31 04:02:13;;;;;;;4.50;3.35;;;;;;;;;;5053063;28;20056;-74
2022/07/31 04:04:44;;;;;;;4.85;3.40;;;;;;;;;;5053403;28;20068;-75
2022/07/31 04:07:10;;;;;;;5.15;3.97;;;;;;;;;;5053231;28;20053;-75
2022/07/31 04:09:37;;;;;;;4.25;3.60;;;;;;;;;;5053159;28;20083;-74
2022/07/31 04:12:04;;;;;;;3.95;3.55;;;;;;;;;;5053555;28;20045;-75
2022/07/31 04:14:31;;;;;;;;;;;;;;;;;;5053356;28;20091;-75
2022/07/31 04:16:57;;;;;;;3.83;3.47;;;;;;;;;;5053225;28;19968;-74
2022/07/31 04:19:24;;;;;;;4.13;3.42;;;;;;;;;;5053390;28;20044;-75
2022/07/31 04:21:50;;;;;;;5.40;3.88;;;;;;;;;;5053246;28;20073;-74
2022/07/31 04:24:17;;;;;;;6.28;3.90;;;;;;;;;;5053204;28;20084;-72
2022/07/31 04:26:43;;;;;;;4.75;3.80;;;;;;;;;;5052850;28;20106;-74
2022/07/31 04:29:10;;;;;;;5.80;3.63;;;;;;;;;;5053191;28;20095;-74
2022/07/31 04:31:36;;;;;;;6.78;3.67;;;;;;;;;;5052786;28;20355;-75
2022/07/31 04:34:03;;;;;;;4.07;3.63;;;;;;;;;;5052704;28;20481;-74
2022/07/31 04:36:30;;;;;;;3.80;3.38;;;;;;;;;;5052655;28;20084;-74
2022/07/31 04:38:59;;;;;;;4.00;3.53;;;;;;;;;;5052614;28;20044;-75
2022/07/31 04:41:26;;;;;;;5.72;3.63;;;;;;;;;;5052870;28;20084;-75
2022/07/31 04:43:53;;;;;;;3.47;3.15;;;;;;;;;;5052790;28;20120;-73
2022/07/31 04:46:20;;;;;;;5.37;3.57;;;;;;;;;;5051343;28;20081;-73
2022/07/31 04:48:46;;;;;;;5.90;3.72;;;;;;;;;;5052315;28;20057;-75
2022/07/31 04:51:18;;;;;;;3.90;3.42;;;;;;;;;;5052379;28;20049;-75
2022/07/31 04:53:45;;;;;;;5.80;3.47;;;;;;;;;;5052571;28;20044;-73
2022/07/31 04:58:57;;;;;;;5.45;3.88;;;;;;;;;;5052257;28;20073;-75
2022/07/31 05:01:23;;;;;;;5.97;3.92;;;;;;;;;;5052489;28;20092;-75
2022/07/31 05:03:50;;;;;;;5.57;3.60;;;;;;;;;;5052476;28;20049;-75
2022/07/31 05:06:16;;;;;;;4.28;3.60;;;;;;;;;;5052279;28;20460;-74
2022/07/31 05:08:42;;;;;;;5.32;4.30;;;;;;;;;;5052372;28;20122;-73
2022/07/31 05:11:21;;;;;;;5.30;3.80;;;;;;;;;;5052383;28;20457;-73
2022/07/31 05:13:48;;;;;;;6.18;4.18;;;;;;;;;;5051332;28;20048;-76
2022/07/31 05:16:14;;;;;;;7.57;4.28;;;;;;;;;;5051800;28;20080;-74
2022/07/31 05:18:41;;;;;;;5.43;4.68;;;;;;;;;;5052267;28;20076;-74
2022/07/31 05:21:07;;;;;;;6.85;3.90;;;;;;;;;;5052228;28;20077;-73
2022/07/31 05:23:34;;;;;;;6.22;4.68;;;;;;;;;;5052224;28;20481;-73
2022/07/31 05:26:00;;;;;;;5.88;3.97;;;;;;;;;;5051808;28;20500;-74
2022/07/31 05:28:27;;;;;;;6.40;4.13;;;;;;;;;;5051755;28;20072;-73
2022/07/31 05:30:55;;;;;;;5.60;4.30;;;;;;;;;;5052008;28;20084;-73
2022/07/31 05:33:22;;;;;;;5.55;4.10;;;;;;;;;;5051885;28;20053;-74
2022/07/31 05:35:48;;;;;;;5.88;4.22;;;;;;;;;;5051723;28;20084;-73
2022/07/31 05:38:15;;;;;;;5.70;4.47;;;;;;;;;;5051894;28;20464;-73
2022/07/31 05:40:41;;;;;;;5.88;4.40;;;;;;;;;;5051745;28;20477;-72
2022/07/31 05:43:09;;;;;;;6.05;4.32;;;;;;;;;;5051944;28;20465;-73
2022/07/31 05:45:36;;;;;;;5.63;4.40;;;;;;;;;;5050521;28;20099;-73
2022/07/31 05:48:02;;;;;;;7.00;4.10;;;;;;;;;;5051514;28;20049;-72
2022/07/31 05:50:29;;;;;;;5.20;3.63;;;;;;;;;;5051812;28;20091;-73
2022/07/31 05:52:55;;;;;;;4.63;4.03;;;;;;;;;;5051460;28;20084;-73
2022/07/31 05:55:22;;;;;;;5.95;4.00;;;;;;;;;;5051426;28;20144;-74
2022/07/31 05:57:48;;;;;;;5.10;3.75;;;;;;;;;;5051439;28;20049;-73
2022/07/31 06:00:15;;;;;;;4.28;3.95;;;;;;;;;;5051655;28;20059;-73
2022/07/31 06:02:42;;;;;;;6.57;3.92;;;;;;;;;;5050197;28;20076;-74
2022/07/31 06:05:09;;;;;;;6.35;3.63;;;;;;;;;;5051636;28;20080;-74
2022/07/31 06:07:35;;;;;;;6.07;3.80;;;;;;;;;;5051356;28;20084;-74
2022/07/31 06:10:02;;;;;;;4.55;3.80;;;;;;;;;;5051311;28;20455;-73
2022/07/31 06:12:29;;;;;;;8.63;4.13;;;;;;;;;;5051594;28;20095;-73
2022/07/31 06:14:55;;;;;;;4.15;3.53;;;;;;;;;;5051428;28;20132;-73
2022/07/31 06:17:21;;;;;;;4.00;3.60;;;;;;;;;;5051603;28;20076;-72
2022/07/31 06:20:05;;;;;;;5.07;3.75;;;;;;;;;;5051552;28;20124;-73
2022/07/31 06:22:32;;;;;;;4.90;3.30;;;;;;;;;;5051534;28;20076;-73
2022/07/31 06:24:58;;;;;;;5.43;3.28;;;;;;;;;;5051336;28;20581;-74
2022/07/31 06:27:25;;;;;;;3.25;2.95;;;;;;;;;;5055514;28;20146;-74
2022/07/31 06:30:00;;;;;;;3.20;2.42;;;;;;;;;;5055210;28;20049;-74
2022/07/31 06:32:26;;;;;;;2.80;2.55;;;;;;;;;;5055112;28;20087;-73
2022/07/31 06:34:53;;;;;;;2.13;2.03;;;;;;;;;;5054921;28;20089;-73
2022/07/31 06:37:19;;;;;;;2.33;2.13;;;;;;;;;;5055007;28;20081;-74
2022/07/31 06:39:46;;;;;;;2.77;2.57;;;;;;;;;;5053998;28;20132;-74
2022/07/31 06:42:21;;;;;;;3.13;2.25;;;;;;;;;;5055119;28;20060;-74
2022/07/31 06:44:48;;;;;;;2.65;2.45;;;;;;;;;;5054802;28;20088;-74
2022/07/31 06:47:15;;;;;;;2.35;2.15;;;;;;;;;;5054803;28;20136;-72
2022/07/31 06:49:41;;;;;;;;;;;;;;;;;;5055194;28;20106;-74
2022/07/31 06:52:08;;;;;;;2.93;2.60;;;;;;;;;;5054979;28;20007;-74
2022/07/31 06:54:34;;;;;;;3.08;2.58;;;;;;;;;;5054889;28;20310;-73
2022/07/31 06:57:01;;;;;;;3.13;2.83;;;;;;;;;;5054650;28;20128;-73
2022/07/31 06:59:28;;;;;;;4.03;2.80;;;;;;;;;;5054474;28;20049;-73
2022/07/31 07:02:06;;;;;;;4.78;2.75;;;;;;;;;;5054482;28;20057;-73
2022/07/31 07:04:33;;;;;;;3.25;2.75;;;;;;;;;;5054473;28;20485;-73
2022/07/31 07:07:19;;;;;;;3.15;2.33;;;;;;;;;;5054760;28;20045;-73
2022/07/31 07:09:46;;;;;;;4.23;2.30;;;;;;;;;;5054629;28;20045;-73
2022/07/31 07:12:12;;;;;;;3.58;2.15;;;;;;;;;;5054344;28;20787;-74
2022/07/31 07:14:42;;;;;;;2.58;2.30;;;;;;;;;;5054389;28;20041;-73
2022/07/31 07:17:08;;;;;;;2.92;2.13;;;;;;;;;;5054332;28;20073;-73
2022/07/31 07:19:38;;;;;;;2.70;2.13;;;;;;;;;;5054422;28;20079;-73
2022/07/31 07:22:04;;;;;;;2.28;2.08;;;;;;;;;;5054501;28;20049;-71
2022/07/31 07:24:31;;;;;;;4.22;2.30;;;;;;;;;;5054486;28;20040;-74
2022/07/31 07:26:58;;;;;;;2.72;2.13;;;;;;;;;;5054102;28;20496;-73
2022/07/31 07:29:24;;;;;;;2.40;2.20;;;;;;;;;;5054025;28;20053;-73
2022/07/31 07:31:50;;;;;;;2.58;2.38;;;;;;;;;;5054424;28;20103;-73
2022/07/31 07:34:17;;;;;;;2.47;1.83;;;;;;;;;;5054154;28;20107;-73
2022/07/31 07:36:43;;;;;;;4.05;1.92;;;;;;;;;;5053414;28;20091;-74
2022/07/31 07:39:10;;;;;;;2.07;1.60;;;;;;;;;;5053723;28;20480;-73
2022/07/31 07:41:37;;;;;;;2.55;1.60;;;;;;;;;;5053633;28;20140;-73
2022/07/31 07:44:05;;;;;;;1.75;1.40;;;;;;;;;;5053986;28;20409;-74
2022/07/31 07:46:31;;;;;;;1.75;1.10;;;;;;;;;;5053962;28;20409;-75
2022/07/31 07:48:58;;;;;;;1.70;1.20;;;;;;;;;;5053516;28;20088;-74
2022/07/31 07:51:24;;;;;;;1.10;1.00;;;;;;;;;;5053948;28;20048;-74
2022/07/31 07:53:51;;;;;;;1.30;0.90;;;;;;;;;;5053679;28;20339;-74
2022/07/31 07:56:17;;;;;;;1.50;1.10;;;;;;;;;;5053374;28;20136;-75
2022/07/31 07:58:44;;;;;;;1.13;1.10;;;;;;;;;;5053469;28;20076;-73
2022/07/31 08:01:10;;;;;;;1.10;1.00;;;;;;;;;;5053409;28;20044;-73
2022/07/31 08:03:37;;;;;;;2.20;1.17;;;;;;;;;;5053391;28;20051;-74
2022/07/31 08:06:17;;;;;;;1.00;1.00;;;;;;;;;;5053332;28;20056;-75
2022/07/31 08:08:43;;;;;;;1.52;1.17;;;;;;;;;;5053298;28;20052;-74
2022/07/31 08:11:09;;;;;;;1.70;1.02;;;;;;;;;;5053467;28;20132;-73
2022/07/31 08:13:42;;;;;;;0.80;0.80;;;;;;;;;;5052318;28;20056;-74
2022/07/31 08:16:15;;;;;;;1.30;0.90;;;;;;;;;;5053316;28;20052;-74
2022/07/31 08:18:42;;;;;;;0.73;0.73;;;;;;;;;;5053674;28;20080;-74
2022/07/31 08:21:08;;;;;;;0.80;0.80;;;;;;;;;;5053368;28;20080;-74
2022/07/31 08:23:35;;;;;;;0.70;0.70;;;;;;;;;;5051734;28;20056;-74
2022/07/31 08:26:03;;;;;;;0.85;0.75;;;;;;;;;;5052096;28;20088;-74
2022/07/31 08:28:32;;;;;;;1.23;0.55;;;;;;;;;;5052740;28;20048;-73
2022/07/31 08:30:58;;;;;;;0.70;0.70;;;;;;;;;;5052910;28;20056;-73
2022/07/31 08:33:25;;;;;;;0.50;0.50;;;;;;;;;;5053081;28;20118;-73
2022/07/31 08:35:51;;;;;;;0.47;0.47;;;;;;;;;;5052895;28;20048;-74
2022/07/31 08:38:18;;;;;;;1.20;0.50;;;;;;;;;;5052675;28;20551;-73
2022/07/31 08:40:45;;;;;;;1.58;0.30;;;;;;;;;;5052994;28;20045;-74
2022/07/31 08:43:12;;;;;;;2.45;0.30;;;;;;;;;;5052789;28;20136;-74
2022/07/31 08:46:02;;;;;;;0.75;0.40;;;;;;;;;;5052441;28;20502;-74
2022/07/31 08:48:31;;;;;;;0.90;0.30;;;;;;;;;;5052475;28;20574;-74
2022/07/31 08:50:59;;;;;;;0.88;0.20;;;;;;;;;;5052640;28;20049;-73
2022/07/31 08:53:28;;;;;;;0.85;0.20;;;;;;;;;;5052741;28;20080;-74
2022/07/31 08:55:55;;;;;;;0.50;0.20;;;;;;;;;;5052308;28;20041;-74
2022/07/31 08:58:23;;;;;;;1.15;0.20;;;;;;;;;;5052311;28;20516;-74
2022/07/31 09:00:50;;;;;;;1.55;0.40;;;;;;;;;;5052176;28;20493;-74
2022/07/31 09:03:16;;;;;;;1.75;0.20;;;;;;;;;;5052530;28;20048;-74
2022/07/31 09:05:43;;;;;;;0.47;0.20;;;;;;;;;;5051190;28;20079;-74
2022/07/31 09:08:09;;;;;;;0.68;0.20;;;;;;;;;;5052449;28;20080;-73
2022/07/31 09:10:40;;;;;;;0.20;0.10;;;;;;;;;;5052267;28;20056;-73
2022/07/31 09:13:16;;;;;;;2.00;0.35;;;;;;;;;;5052104;28;20453;-74
2022/07/31 09:15:45;;;;;;;0.70;0.17;;;;;;;;;;5050722;28;20163;-74
2022/07/31 09:18:17;;;;;;;0.03;0.00;;;;;;;;;;5052308;28;20452;-74
2022/07/31 09:20:54;;;;;;;0.25;0.00;;;;;;;;;;5052016;28;20076;-75
2022/07/31 09:23:21;;;;;;;;;;;;;;;;;;5052386;28;20473;-74
2022/07/31 09:25:51;;;;;;;0.80;0.00;;;;;;;;;;5051867;28;19959;-74
2022/07/31 09:28:18;;;;;;;0.43;0.00;;;;;;;;;;5052039;28;20072;-75
2022/07/31 09:30:53;;;;;;;0.20;0.10;;;;;;;;;;5052128;28;20056;-75
2022/07/31 09:33:22;;;;;;;0.10;0.05;;;;;;;;;;5052044;28;20056;-74
2022/07/31 09:35:49;;;;;;;0.03;0.03;;;;;;;;;;5051689;28;20045;-74
2022/07/31 09:38:16;;;;;;;0.43;0.20;;;;;;;;;;5051641;28;20516;-74
2022/07/31 09:40:44;;;;;;;0.32;0.10;;;;;;;;;;5050469;28;20500;-74
2022/07/31 09:43:23;;;;;;;0.10;0.00;;;;;;;;;;5051838;28;20128;-74
2022/07/31 09:46:00;;;;;;;0.10;0.10;;;;;;;;;;5051584;28;20049;-74
2022/07/31 09:48:26;;;;;;;0.43;0.00;;;;;;;;;;5051581;28;20083;-75
2022/07/31 09:50:58;;;;;;;0.00;0.00;;;;;;;;;;5051479;28;20461;-74
2022/07/31 09:53:25;;;;;;;0.13;0.05;;;;;;;;;;5050650;28;20080;-75
2022/07/31 09:55:52;;;;;;;0.22;0.00;;;;;;;;;;5051575;28;20477;-74
2022/07/31 09:58:20;;;;;;;0.05;0.05;;;;;;;;;;5051616;28;20073;-75
2022/07/31 10:00:48;;;;;;;0.00;0.00;;;;;;;;;;5054809;28;20085;-75
2022/07/31 10:03:17;;;;;;;0.28;0.00;;;;;;;;;;5058680;28;20053;-75
2022/07/31 10:05:44;;;;;;;0.03;0.00;;;;;;;;;;5057146;28;20107;-76
2022/07/31 10:08:12;;;;;;;1.67;0.10;;;;;;;;;;5058239;28;20412;-75
2022/07/31 10:10:41;;;;;;;0.40;0.20;;;;;;;;;;5057947;28;20052;-75
2022/07/31 10:13:09;;;;;;;0.77;0.22;;;;;;;;;;5058527;28;20079;-74
2022/07/31 10:15:36;;;;;;;0.50;0.10;;;;;;;;;;5057916;28;20509;-75
2022/07/31 10:18:04;;;;;;;0.75;0.17;;;;;;;;;;5057945;28;20072;-75
2022/07/31 10:20:31;;;;;;;0.60;0.10;;;;;;;;;;5056762;28;20548;-75
2022/07/31 10:23:00;;;;;;;1.25;0.13;;;;;;;;;;5056880;28;20073;-76
2022/07/31 10:25:27;;;;;;;0.95;0.10;;;;;;;;;;5057966;28;20282;-75
2022/07/31 10:27:56;;;;;;;0.40;0.10;;;;;;;;;;5057853;28;20067;-75
2022/07/31 10:30:23;;;;;;;0.55;0.20;;;;;;;;;;5058167;28;20057;-77
2022/07/31 10:32:54;;;;;;;0.17;0.10;;;;;;;;;;5056894;28;20110;-75
2022/07/31 10:35:21;;;;;;;0.75;0.25;;;;;;;;;;5058106;28;20072;-76
2022/07/31 10:37:54;;;;;;;0.30;0.10;;;;;;;;;;5056488;28;20053;-76
2022/07/31 10:40:35;;;;;;;0.35;0.20;;;;;;;;;;5058011;28;20072;-75
2022/07/31 10:43:02;;;;;;;0.95;0.20;;;;;;;;;;5057715;28;20099;-74
2022/07/31 10:45:30;;;;;;;0.20;0.10;;;;;;;;;;5057934;28;20076;-75
2022/07/31 10:47:58;;;;;;;1.85;0.22;;;;;;;;;;5057703;28;20048;-76
2022/07/31 10:50:25;;;;;;;0.50;0.20;;;;;;;;;;5058002;28;20073;-75
2022/07/31 10:52:52;;;;;;;0.75;0.30;;;;;;;;;;5057649;28;20076;-76
2022/07/31 10:55:28;;;;;;;1.17;0.20;;;;;;;;;;5058046;28;20439;-77
2022/07/31 10:58:05;;;;;;;0.13;0.13;;;;;;;;;;5057727;28;20044;-79
2022/07/31 11:00:31;;;;;;;0.17;0.15;;;;;;;;;;5057613;28;20083;-77
2022/07/31 11:02:58;;;;;;;0.57;0.30;;;;;;;;;;5057801;28;20069;-77
2022/07/31 11:05:27;;;;;;;1.30;0.30;;;;;;;;;;5057895;28;20468;-77
2022/07/31 11:08:01;;;;;;;0.52;0.20;;;;;;;;;;5057744;28;20482;-75
2022/07/31 11:10:28;;;;;;;1.23;0.32;;;;;;;;;;5057586;28;20084;-77
2022/07/31 11:13:03;;;;;;;0.55;0.30;;;;;;;;;;5053890;28;20126;-77
2022/07/31 11:15:29;;;;;;;0.88;0.22;;;;;;;;;;5054652;28;20518;-76
2022/07/31 11:17:56;;;;;;;0.63;0.20;;;;;;;;;;5054187;28;20592;-77
2022/07/31 11:20:45;;;;;;;1.55;0.20;;;;;;;;;;5054157;28;20053;-77
2022/07/31 11:23:16;;;;;;;0.30;0.30;;;;;;;;;;5054469;28;20404;-77
2022/07/31 11:25:44;;;;;;;0.32;0.20;;;;;;;;;;5054526;28;20052;-75
2022/07/31 11:28:26;;;;;;;1.05;0.38;;;;;;;;;;5052887;28;20045;-76
2022/07/31 11:30:53;;;;;;;0.50;0.30;;;;;;;;;;5054071;28;20077;-77
2022/07/31 11:33:30;;;;;;;0.30;0.30;;;;;;;;;;5054180;28;20488;-77
2022/07/31 11:36:19;;;;;;;0.90;0.35;;;;;;;;;;5054074;28;20049;-77
2022/07/31 11:38:46;;;;;;;0.47;0.30;;;;;;;;;;5053858;28;20076;-76
2022/07/31 11:41:13;;;;;;;0.77;0.20;;;;;;;;;;5053863;28;20519;-76
2022/07/31 11:43:44;;;;;;;1.05;0.40;;;;;;;;;;5053938;28;20041;-77
2022/07/31 11:46:10;;;;;;;0.55;0.20;;;;;;;;;;5052711;28;20091;-77
2022/07/31 11:48:38;;;;;;;2.67;0.20;;;;;;;;;;5052443;28;20343;-76
2022/07/31 11:51:15;;;;;;;0.43;0.20;;;;;;;;;;5053641;28;20493;-77
2022/07/31 11:53:42;;;;;;;0.35;0.15;;;;;;;;;;5053583;28;20489;-76
2022/07/31 11:56:08;;;;;;;;;;;;;;;;;;5054085;28;20137;-76
2022/07/31 11:58:35;;;;;;;0.75;0.30;;;;;;;;;;5053468;28;20339;-77
2022/07/31 12:01:02;;;;;;;1.45;0.30;;;;;;;;;;5053621;28;20045;-77
2022/07/31 12:03:31;;;;;;;0.52;0.40;;;;;;;;;;5053398;28;20084;-76
2022/07/31 12:05:58;;;;;;;1.63;0.50;;;;;;;;;;5053302;28;20535;-77
2022/07/31 12:08:25;;;;;;;0.55;0.38;;;;;;;;;;5053297;28;20052;-77
2022/07/31 12:10:53;;;;;;;1.63;0.65;;;;;;;;;;5052277;28;20053;-77
2022/07/31 12:13:20;;;;;;;0.82;0.50;;;;;;;;;;5053113;28;20564;-77
2022/07/31 12:15:55;;;;;;;0.73;0.40;;;;;;;;;;5053135;28;20060;-77
2022/07/31 12:18:22;;;;;;;1.00;0.60;;;;;;;;;;5053116;28;20084;-77
2022/07/31 12:20:51;;;;;;;0.60;0.60;;;;;;;;;;5053110;28;20102;-74
2022/07/31 12:23:18;;;;;;;1.48;0.60;;;;;;;;;;5051382;28;20505;-75
2022/07/31 12:26:04;;;;;;;0.60;0.60;;;;;;;;;;5052951;28;20558;-76
2022/07/31 12:28:30;;;;;;;0.60;0.60;;;;;;;;;;5052892;28;20080;-75
2022/07/31 12:30:58;;;;;;;0.98;0.55;;;;;;;;;;5052921;28;20080;-76
2022/07/31 12:33:26;;;;;;;0.50;0.50;;;;;;;;;;5053080;28;20071;-76
2022/07/31 12:35:53;;;;;;;0.47;0.47;;;;;;;;;;5053135;28;20102;-76
2022/07/31 12:38:23;;;;;;;1.55;0.65;;;;;;;;;;5052578;28;20574;-77
2022/07/31 12:41:06;;;;;;;0.82;0.52;;;;;;;;;;5052876;28;20052;-77
2022/07/31 12:43:34;;;;;;;1.05;0.70;;;;;;;;;;5052893;28;20045;-76
2022/07/31 12:46:04;;;;;;;0.52;0.52;;;;;;;;;;5052905;28;20064;-77
2022/07/31 12:48:33;;;;;;;0.82;0.82;;;;;;;;;;5052567;28;20087;-77
2022/07/31 12:51:06;;;;;;;1.17;0.90;;;;;;;;;;5053053;28;20123;-77
2022/07/31 12:53:32;;;;;;;1.27;0.60;;;;;;;;;;5052493;28;20079;-77
2022/07/31 12:55:59;;;;;;;0.80;0.80;;;;;;;;;;5052410;28;20041;-76
2022/07/31 12:58:25;;;;;;;0.90;0.65;;;;;;;;;;5052268;28;20539;-77
2022/07/31 13:00:53;;;;;;;;;;;;;;;;;;5052979;28;20049;-77
2022/07/31 13:03:20;;;;;;;0.80;0.65;;;;;;;;;;5052597;28;19924;-75
2022/07/31 13:05:46;;;;;;;1.02;0.88;;;;;;;;;;5052248;28;20081;-77
2022/07/31 13:08:17;;;;;;;1.13;0.65;;;;;;;;;;5052322;28;20057;-76
2022/07/31 13:10:43;;;;;;;;;;;;;;;;;;5052717;28;20049;-76
2022/07/31 13:13:10;;;;;;;0.95;0.85;;;;;;;;;;5052013;28;19974;-76
2022/07/31 13:15:36;;;;;;;;;;;;;;;;;;5052786;28;20140;-77
2022/07/31 13:18:03;;;;;;;1.83;0.98;;;;;;;;;;5052472;28;19975;-76
2022/07/31 13:20:30;;;;;;;1.25;0.60;;;;;;;;;;5052182;28;20048;-77
2022/07/31 13:22:58;;;;;;;0.70;0.70;;;;;;;;;;5052001;28;20072;-77
2022/07/31 13:25:26;;;;;;;0.82;0.57;;;;;;;;;;5050979;28;20077;-77
2022/07/31 13:27:52;;;;;;;2.03;0.70;;;;;;;;;;5051783;28;20091;-76
2022/07/31 13:30:19;;;;;;;0.90;0.70;;;;;;;;;;5051797;28;20106;-78
2022/07/31 13:32:45;;;;;;;1.05;0.47;;;;;;;;;;5052137;28;20076;-74
2022/07/31 13:35:13;;;;;;;0.95;0.45;;;;;;;;;;5051330;28;20442;-75
2022/07/31 13:37:53;;;;;;;1.17;0.43;;;;;;;;;;5050836;28;20448;-74
2022/07/31 13:41:19;;;;;;;1.05;0.40;;;;;;;;;;5051904;28;20077;-75
2022/07/31 13:43:06;;;;;;;0.73;0.50;;;;;;;;;;5051649;28;20049;-74
2022/07/31 13:45:32;;;;;;;0.50;0.50;;;;;;;;;;5051633;28;20049;-76
2022/07/31 13:47:59;;;;;;;2.35;0.50;;;;;;;;;;5051421;28;20056;-74
2022/07/31 13:50:30;;;;;;;1.45;0.40;;;;;;;;;;5051842;28;20088;-74
2022/07/31 13:52:57;;;;;;;0.45;0.40;;;;;;;;;;5051843;28;20083;-75
2022/07/31 13:55:24;;;;;;;1.30;0.50;;;;;;;;;;5051747;28;20091;-74
2022/07/31 13:57:51;;;;;;;3.00;0.40;;;;;;;;;;5051363;28;20454;-76
2022/07/31 14:00:20;;;;;;;0.57;0.43;;;;;;;;;;5051756;28;20073;-79
2022/07/31 14:02:48;;;;;;;1.23;0.57;;;;;;;;;;5050202;28;20083;-79
2022/07/31 14:05:15;;;;;;;1.70;0.60;;;;;;;;;;5050123;28;20049;-77
2022/07/31 14:07:42;;;;;;;1.60;0.40;;;;;;;;;;5051634;28;20049;-79
2022/07/31 14:10:17;;;;;;;0.68;0.50;;;;;;;;;;5051427;28;20489;-78
2022/07/31 14:12:46;;;;;;;0.98;0.52;;;;;;;;;;5051804;28;20079;-79
2022/07/31 14:15:13;;;;;;;0.60;0.60;;;;;;;;;;5051617;28;20087;-79
2022/07/31 14:17:39;;;;;;;0.57;0.30;;;;;;;;;;5051457;28;20144;-78
2022/07/31 14:20:06;;;;;;;2.40;0.47;;;;;;;;;;5051532;28;20095;-78
2022/07/31 14:22:32;;;;;;;3.40;0.60;;;;;;;;;;5051297;28;20497;-78
2022/07/31 14:24:59;;;;;;;0.77;0.70;;;;;;;;;;5051460;28;20073;-78
2022/07/31 14:27:26;;;;;;;0.65;0.60;;;;;;;;;;5051302;28;20053;-79
2022/07/31 14:29:52;;;;;;;0.63;0.50;;;;;;;;;;5051190;28;20100;-79
2022/07/31 14:32:20;;;;;;;1.30;0.60;;;;;;;;;;5051413;28;20045;-79
2022/07/31 14:34:50;;;;;;;0.68;0.68;;;;;;;;;;5051269;28;20102;-79
2022/07/31 14:37:17;;;;;;;0.90;0.90;;;;;;;;;;5051044;28;20453;-79
2022/07/31 14:39:43;;;;;;;1.05;0.90;;;;;;;;;;5051250;28;20077;-78
2022/07/31 14:42:10;;;;;;;1.20;1.10;;;;;;;;;;5051034;28;20497;-78
2022/07/31 14:44:40;;;;;;;2.90;2.05;;;;;;;;;;5049728;28;20505;-77
2022/07/31 14:47:07;;;;;;;2.50;1.77;;;;;;;;;;5053092;28;20088;-78
2022/07/31 14:49:34;;;;;;;1.60;1.50;;;;;;;;;;5054943;28;20517;-78
2022/07/31 14:52:20;;;;;;;3.22;1.80;;;;;;;;;;5054618;28;20500;-77
2022/07/31 14:54:46;;;;;;;2.22;1.80;;;;;;;;;;5054829;28;20087;-78
2022/07/31 14:57:13;;;;;;;2.22;1.52;;;;;;;;;;5054940;28;20084;-78